createdAt,value
2022-11-16T00:02:50.990Z,96.85
2022-11-16T00:16:06.368Z,95.75
2022-11-16T00:18:33.596Z,92.93
2022-11-16T00:23:38.001Z,103.62
2022-11-16T00:26:09.810Z,104.45
2022-11-16T00:28:36.601Z,100.10
2022-11-16T00:31:05.992Z,128.48
2022-11-16T00:33:32.603Z,97.45
2022-11-16T00:36:30.186Z,97.43
2022-11-16T00:39:24.793Z,101.10
2022-11-16T00:42:13.188Z,100.70
2022-11-16T00:44:39.730Z,104.25
2022-11-16T00:47:06.251Z,106.63
2022-11-16T00:49:32.843Z,106.95
2022-11-16T00:51:59.365Z,95.38
2022-11-16T00:54:25.912Z,92.22
2022-11-16T00:57:07.529Z,99.97
2022-11-16T00:59:34.087Z,112.57
2022-11-16T01:02:00.635Z,103.25
2022-11-16T01:04:27.307Z,110.07
2022-11-16T01:07:25.138Z,103.68
2022-11-16T01:10:12.553Z,96.70
2022-11-16T01:12:39.658Z,101.03
2022-11-16T01:15:09.118Z,116.28
2022-11-16T01:17:37.726Z,105.82
2022-11-16T01:20:06.661Z,114.82
2022-11-16T01:22:36.251Z,109.03
2022-11-16T01:25:21.943Z,135.90
2022-11-16T01:27:48.533Z,137.70
2022-11-16T01:30:16.560Z,125.20
2022-11-16T01:32:43.224Z,97.65
2022-11-16T01:39:19.679Z,99.10
2022-11-16T01:41:46.784Z,134.27
2022-11-16T01:44:31.644Z,144.50
2022-11-16T01:47:06.709Z,136.75
2022-11-16T01:49:37.419Z,118.80
2022-11-16T01:52:10.353Z,131.52
2022-11-16T02:20:15.662Z,102.38
2022-11-16T02:23:12.245Z,123.38
2022-11-16T02:26:26.122Z,104.78
2022-11-16T02:32:03.314Z,102.85
2022-11-16T02:34:37.552Z,119.05
2022-11-16T02:37:07.837Z,117.62
2022-11-16T02:39:37.331Z,126.50
2022-11-16T02:42:08.352Z,117.03
2022-11-16T02:45:20.401Z,118.13
2022-11-16T02:53:24.425Z,107.22
2022-11-16T02:55:51.364Z,89.30
2022-11-16T02:58:21.404Z,124.70
2022-11-16T03:01:25.215Z,94.20
2022-11-16T03:04:28.268Z,114.53
2022-11-16T03:06:58.284Z,99.90
2022-11-16T03:09:29.085Z,101.70
2022-11-16T03:12:00.849Z,129.38
2022-11-16T03:14:37.935Z,150.90
2022-11-16T03:17:08.265Z,121.47
2022-11-16T03:19:44.078Z,118.60
2022-11-16T03:22:42.410Z,124.07
2022-11-16T03:25:46.629Z,157.15
2022-11-16T03:29:14.098Z,124.93
2022-11-16T03:31:52.124Z,119.75
2022-11-16T03:34:21.865Z,135.45
2022-11-16T03:36:51.117Z,146.93
2022-11-16T03:39:25.632Z,123.93
2022-11-16T03:41:53.318Z,117.95
2022-11-16T03:49:57.915Z,108.10
2022-11-16T03:52:24.692Z,171.20
2022-11-16T03:54:51.210Z,176.48
2022-11-16T03:57:18.626Z,149.50
2022-11-16T04:00:09.194Z,133.45
2022-11-16T04:03:03.799Z,196.65
2022-11-16T04:05:57.987Z,155.15
2022-11-16T04:08:43.312Z,186.50
2022-11-16T04:11:38.000Z,166.80
2022-11-16T04:14:23.938Z,124.60
2022-11-16T04:17:09.295Z,158.95
2022-11-16T04:19:58.187Z,204.70
2022-11-16T04:22:51.721Z,135.50
2022-11-16T04:25:27.913Z,204.70
2022-11-16T04:28:13.248Z,173.80
2022-11-16T04:31:08.691Z,130.60
2022-11-16T04:33:54.247Z,169.37
2022-11-16T04:40:13.966Z,117.87
2022-11-16T04:42:40.537Z,166.48
2022-11-16T04:45:26.210Z,159.00
2022-11-16T04:47:53.702Z,155.90
2022-11-16T04:50:20.729Z,122.65
2022-11-16T05:50:17.903Z,139.68
2022-11-16T05:52:44.527Z,157.52
2022-11-16T05:55:11.072Z,106.32
2022-11-16T05:57:37.614Z,128.48
2022-11-16T06:00:04.987Z,139.75
2022-11-16T06:02:34.966Z,156.82
2022-11-16T06:05:02.126Z,132.10
2022-11-16T06:07:28.980Z,133.80
2022-11-16T06:09:55.527Z,151.63
2022-11-16T06:12:22.065Z,165.30
2022-11-16T06:14:48.595Z,120.37
2022-11-16T06:17:15.162Z,152.87
2022-11-16T06:19:42.027Z,107.22
2022-11-16T06:22:08.577Z,108.45
2022-11-16T06:24:35.116Z,124.38
2022-11-16T06:37:28.803Z,129.18
2022-11-16T06:39:55.381Z,111.72
2022-11-16T06:42:22.071Z,153.90
2022-11-16T06:44:48.581Z,143.55
2022-11-16T06:47:15.251Z,125.35
2022-11-16T06:49:41.891Z,124.38
2022-11-16T06:54:49.854Z,181.20
2022-11-16T06:57:16.437Z,156.85
2022-11-16T06:59:42.989Z,137.73
2022-11-16T07:02:13.004Z,120.68
2022-11-16T07:04:39.969Z,154.00
2022-11-16T07:07:06.567Z,132.63
2022-11-16T07:09:33.271Z,112.68
2022-11-16T07:11:59.803Z,182.45
2022-11-16T07:14:26.332Z,127.68
2022-11-16T07:16:59.058Z,117.90
2022-11-16T07:19:26.557Z,99.30
2022-11-16T07:21:53.132Z,126.70
2022-11-16T07:24:19.664Z,110.15
2022-11-16T07:26:46.204Z,108.50
2022-11-16T07:29:13.978Z,149.15
2022-11-16T07:31:40.751Z,111.53
2022-11-16T07:34:07.567Z,138.85
2022-11-16T07:36:34.137Z,121.22
2022-11-16T07:39:00.800Z,164.05
2022-11-16T07:41:27.356Z,135.37
2022-11-16T07:43:53.968Z,112.03
2022-11-16T07:46:47.414Z,133.48
2022-11-16T07:49:17.975Z,139.80
2022-11-16T07:51:45.751Z,126.62
2022-11-16T07:54:15.785Z,112.07
2022-11-16T07:56:42.639Z,109.85
2022-11-16T07:59:09.792Z,116.65
2022-11-16T08:01:36.368Z,103.35
2022-11-16T08:04:03.234Z,110.47
2022-11-16T08:06:31.654Z,96.35
2022-11-16T08:08:59.367Z,113.53
2022-11-16T08:11:26.471Z,118.35
2022-11-16T08:13:56.102Z,111.32
2022-11-16T08:16:23.149Z,106.03
2022-11-16T08:18:49.811Z,98.70
2022-11-16T08:21:17.746Z,116.03
2022-11-16T08:23:45.240Z,110.97
2022-11-16T08:26:17.426Z,122.62
2022-11-16T08:28:45.756Z,87.75
2022-11-16T08:31:18.043Z,135.35
2022-11-16T08:41:57.858Z,100.75
2022-11-16T08:44:27.472Z,146.85
2022-11-16T08:46:54.039Z,112.22
2022-11-16T08:49:20.577Z,121.68
2022-11-16T08:51:47.127Z,112.53
2022-11-16T08:56:54.867Z,118.90
2022-11-16T08:59:21.395Z,108.75
2022-11-16T09:01:50.025Z,100.43
2022-11-16T09:04:19.824Z,104.07
2022-11-16T09:06:46.397Z,91.72
2022-11-16T09:09:28.138Z,101.97
2022-11-16T09:12:25.500Z,104.68
2022-11-16T09:15:06.025Z,97.40
2022-11-16T09:17:32.682Z,95.60
2022-11-16T09:19:59.231Z,93.53
2022-11-16T09:22:26.091Z,100.30
2022-11-16T09:24:52.658Z,93.05
2022-11-16T09:27:19.392Z,86.57
2022-11-16T09:29:45.941Z,102.75
2022-11-16T09:32:12.494Z,104.25
2022-11-16T09:34:39.051Z,98.90
2022-11-16T09:37:05.642Z,97.35
2022-11-16T09:39:32.981Z,92.37
2022-11-16T09:42:08.375Z,93.95
2022-11-16T09:50:56.475Z,120.25
2022-11-16T09:53:38.641Z,103.33
2022-11-16T09:56:07.779Z,105.27
2022-11-16T09:58:52.266Z,97.68
2022-11-16T10:01:41.363Z,105.25
2022-11-16T10:04:39.882Z,94.37
2022-11-16T10:07:09.239Z,93.90
2022-11-16T10:09:36.312Z,95.97
2022-11-16T10:12:06.692Z,92.18
2022-11-16T10:18:51.940Z,91.72
2022-11-16T10:21:47.413Z,101.53
2022-11-16T10:24:24.004Z,87.85
2022-11-16T10:27:08.898Z,93.93
2022-11-16T10:29:51.331Z,87.47
2022-11-16T10:32:56.349Z,95.47
2022-11-16T10:35:27.083Z,90.22
2022-11-16T10:37:54.908Z,96.90
2022-11-16T10:40:26.159Z,92.22
2022-11-16T10:43:42.671Z,83.12
2022-11-16T10:47:07.319Z,93.60
2022-11-16T10:49:44.303Z,90.35
2022-11-16T10:52:10.844Z,78.97
2022-11-16T10:54:42.877Z,85.47
2022-11-16T10:57:14.117Z,83.15
2022-11-16T10:59:59.180Z,77.55
2022-11-16T11:07:39.804Z,83.57
2022-11-16T11:10:23.643Z,85.65
2022-11-16T11:13:02.412Z,79.15
2022-11-16T11:15:28.982Z,83.15
2022-11-16T11:18:48.658Z,82.05
2022-11-16T11:21:49.351Z,83.25
2022-11-16T11:24:43.520Z,74.37
2022-11-16T11:27:07.283Z,76.65
2022-11-16T11:29:38.608Z,71.43
2022-11-16T11:32:19.315Z,65.60
2022-11-16T11:34:53.038Z,72.75
2022-11-16T11:46:15.558Z,59.78
2022-11-16T11:49:02.343Z,61.55
2022-11-16T11:51:37.107Z,66.37
2022-11-16T11:57:26.939Z,66.25
2022-11-16T11:59:54.921Z,65.55
2022-11-16T12:03:02.924Z,68.10
2022-11-16T12:05:50.308Z,62.00
2022-11-16T12:11:50.639Z,60.30
2022-11-16T12:14:40.640Z,66.35
2022-11-16T12:17:29.129Z,69.62
2022-11-16T12:20:16.693Z,62.47
2022-11-16T12:23:46.582Z,67.45
2022-11-16T12:26:29.807Z,67.82
2022-11-16T12:31:41.737Z,61.10
2022-11-16T12:34:20.284Z,62.70
2022-11-16T12:37:09.910Z,60.65
2022-11-16T12:47:50.695Z,62.20
2022-11-16T12:50:32.584Z,67.12
2022-11-16T12:57:01.820Z,58.85
2022-11-16T12:59:42.507Z,62.40
2022-11-16T13:02:36.112Z,53.00
2022-11-16T13:05:15.622Z,60.75
2022-11-16T13:07:48.567Z,58.22
2022-11-16T13:12:47.694Z,60.17
2022-11-16T13:15:20.668Z,58.22
2022-11-16T13:20:32.380Z,57.62
2022-11-16T13:23:12.076Z,60.05
2022-11-16T13:26:03.799Z,64.28
2022-11-16T13:29:04.474Z,60.78
2022-11-16T13:31:39.527Z,58.55
2022-11-16T13:34:14.380Z,54.58
2022-11-16T13:36:45.388Z,49.70
2022-11-16T13:39:21.564Z,51.28
2022-11-16T13:42:07.387Z,55.53
2022-11-16T13:44:34.741Z,50.58
2022-11-16T13:47:05.843Z,50.22
2022-11-16T13:49:40.920Z,53.00
2022-11-16T13:52:40.976Z,47.47
2022-11-16T13:55:13.810Z,49.47
2022-11-16T13:57:51.973Z,44.45
2022-11-16T14:00:31.379Z,47.30
2022-11-16T14:03:16.583Z,43.38
2022-11-16T14:05:45.174Z,44.58
2022-11-16T14:08:24.045Z,46.33
2022-11-16T14:10:50.499Z,43.87
2022-11-16T14:13:38.289Z,43.13
2022-11-16T14:16:19.839Z,43.33
2022-11-16T14:18:54.490Z,40.10
2022-11-16T14:21:36.056Z,40.58
2022-11-16T14:24:48.213Z,41.67
2022-11-16T14:27:31.071Z,42.22
2022-11-16T14:30:18.752Z,38.50
2022-11-16T14:32:52.371Z,39.10
2022-11-16T14:35:39.313Z,37.13
2022-11-16T14:38:30.340Z,36.55
2022-11-16T14:40:59.850Z,34.65
2022-11-16T14:43:34.355Z,37.55
2022-11-16T14:46:07.758Z,36.08
2022-11-16T14:48:41.777Z,35.45
2022-11-16T14:51:14.545Z,36.22
2022-11-16T14:53:46.686Z,30.00
2022-11-16T14:56:15.483Z,29.67
2022-11-16T14:59:00.131Z,33.70
2022-11-16T15:01:39.359Z,27.77
2022-11-16T15:04:12.658Z,30.00
2022-11-16T15:06:49.900Z,28.12
2022-11-16T15:09:33.103Z,27.85
2022-11-16T15:12:23.383Z,27.37
2022-11-16T15:14:52.795Z,27.25
2022-11-16T15:17:22.561Z,29.75
2022-11-16T15:19:57.557Z,29.65
2022-11-16T15:22:29.879Z,30.17
2022-11-16T15:25:01.568Z,25.65
2022-11-16T15:30:20.530Z,29.65
2022-11-16T15:32:49.095Z,30.05
2022-11-16T15:35:18.811Z,26.62
2022-11-16T15:37:45.470Z,27.00
2022-11-16T15:40:13.006Z,30.15
2022-11-16T15:43:14.889Z,30.30
2022-11-16T15:45:52.346Z,32.13
2022-11-16T15:48:23.219Z,29.30
2022-11-16T15:51:07.993Z,32.22
2022-11-16T15:53:39.487Z,32.47
2022-11-16T15:56:10.072Z,34.53
2022-11-16T15:58:40.235Z,31.20
2022-11-16T16:03:53.887Z,36.35
2022-11-16T16:06:53.017Z,32.60
2022-11-16T16:09:31.546Z,33.17
2022-11-16T16:15:44.879Z,41.10
2022-11-16T16:18:39.751Z,40.80
2022-11-16T16:31:41.019Z,35.88
2022-11-16T16:34:11.500Z,38.90
2022-11-16T16:36:38.052Z,36.42
2022-11-16T16:39:04.595Z,41.25
2022-11-16T16:41:31.130Z,37.05
2022-11-16T16:43:57.690Z,36.13
2022-11-16T16:46:24.227Z,30.65
2022-11-16T16:48:50.917Z,31.45
2022-11-16T16:51:38.926Z,29.23
2022-11-16T16:54:05.771Z,29.20
2022-11-16T16:56:32.302Z,30.90
2022-11-16T16:58:58.831Z,29.52
2022-11-16T17:01:26.613Z,26.58
2022-11-16T17:03:53.520Z,30.70
2022-11-16T17:17:01.046Z,28.95
2022-11-16T17:19:28.693Z,31.65
2022-11-16T17:22:11.736Z,30.20
2022-11-16T17:24:38.768Z,33.00
2022-11-16T17:27:05.368Z,29.33
2022-11-16T17:29:35.163Z,31.20
2022-11-16T17:32:02.406Z,28.27
2022-11-16T17:34:29.130Z,29.10
2022-11-16T17:36:56.001Z,36.65
2022-11-16T17:39:24.816Z,37.97
2022-11-16T17:41:51.553Z,28.98
2022-11-16T17:44:21.867Z,26.87
2022-11-16T17:46:50.004Z,30.20
2022-11-16T17:49:16.516Z,31.33
2022-11-16T17:51:43.238Z,33.20
2022-11-16T17:54:09.853Z,29.27
2022-11-16T17:56:36.640Z,28.67
2022-11-16T17:59:03.458Z,30.37
2022-11-16T18:01:30.262Z,29.20
2022-11-16T18:03:57.213Z,31.60
2022-11-16T18:06:25.246Z,28.67
2022-11-16T18:08:52.305Z,32.38
2022-11-16T18:11:23.840Z,28.42
2022-11-16T18:13:57.110Z,25.95
2022-11-16T18:16:26.519Z,29.17
2022-11-16T18:19:04.931Z,26.75
2022-11-16T18:21:33.838Z,25.08
2022-11-16T18:24:00.659Z,24.50
2022-11-16T18:26:27.204Z,24.63
2022-11-16T18:28:54.142Z,20.48
2022-11-16T18:31:23.296Z,24.33
2022-11-16T18:34:08.496Z,23.65
2022-11-16T18:36:35.061Z,22.92
2022-11-16T18:39:01.635Z,27.40
2022-11-16T18:41:29.665Z,23.85
2022-11-16T18:43:58.949Z,29.75
2022-11-16T18:46:27.638Z,29.25
2022-11-16T18:48:54.997Z,24.77
2022-11-16T18:51:22.577Z,23.65
2022-11-16T18:53:52.167Z,26.27
2022-11-16T18:56:19.431Z,25.92
2022-11-16T19:04:17.004Z,22.33
2022-11-16T19:06:43.570Z,25.83
2022-11-16T19:09:10.455Z,25.25
2022-11-16T19:11:37.136Z,23.50
2022-11-16T19:14:04.763Z,23.45
2022-11-16T19:16:31.769Z,23.55
2022-11-16T19:18:58.380Z,30.15
2022-11-16T19:34:41.046Z,21.45
2022-11-16T19:37:07.661Z,18.35
2022-11-16T19:39:34.238Z,21.15
2022-11-16T19:42:00.846Z,19.27
2022-11-16T19:44:27.393Z,17.58
2022-11-16T19:46:54.488Z,19.15
2022-11-16T19:49:21.835Z,18.20
2022-11-16T19:51:49.149Z,21.95
2022-11-16T19:54:15.703Z,18.50
2022-11-16T19:56:43.047Z,17.65
2022-11-16T19:59:10.134Z,15.60
2022-11-16T20:01:36.726Z,13.93
2022-11-16T20:04:04.270Z,15.13
2022-11-16T20:06:36.319Z,16.50
2022-11-16T20:20:11.132Z,14.73
2022-11-16T20:25:13.174Z,15.85
2022-11-16T20:27:39.712Z,16.30
2022-11-16T20:30:09.681Z,15.27
2022-11-16T20:32:36.523Z,16.80
2022-11-16T20:35:34.110Z,16.12
2022-11-16T20:38:41.455Z,16.20
2022-11-16T20:41:13.098Z,16.62
2022-11-16T20:43:40.784Z,17.05
2022-11-16T20:46:12.581Z,17.20
2022-11-16T20:48:40.659Z,17.33
2022-11-16T20:51:08.792Z,15.00
2022-11-16T20:53:35.608Z,15.77
2022-11-16T20:56:03.709Z,15.05
2022-11-16T20:58:31.516Z,16.60
2022-11-16T21:01:02.722Z,17.05
2022-11-16T21:03:29.637Z,18.35
2022-11-16T21:05:59.080Z,18.70
2022-11-16T21:08:26.441Z,18.52
2022-11-16T21:10:53.796Z,17.10
2022-11-16T21:13:39.325Z,19.20
2022-11-16T21:16:08.540Z,20.70
2022-11-16T21:18:35.096Z,17.87
2022-11-16T21:21:04.024Z,17.25
2022-11-16T21:26:31.085Z,19.02
2022-11-16T21:28:58.861Z,18.75
2022-11-16T21:31:29.670Z,19.80
2022-11-16T21:33:56.842Z,18.60
2022-11-16T21:36:25.628Z,18.87
2022-11-16T21:43:17.436Z,18.85
2022-11-16T21:45:45.817Z,16.87
2022-11-16T21:48:13.131Z,16.58
2022-11-16T21:55:50.183Z,15.88
2022-11-16T22:01:00.359Z,16.40
2022-11-16T22:03:31.840Z,18.23
2022-11-16T22:06:19.663Z,17.23
2022-11-16T22:08:47.256Z,15.73
2022-11-16T22:11:15.416Z,17.20
2022-11-16T22:14:31.924Z,21.00
2022-11-16T22:17:55.140Z,20.02
2022-11-16T22:20:21.900Z,17.50
2022-11-16T22:22:48.880Z,17.80
2022-11-16T22:25:15.869Z,22.13
2022-11-16T22:28:05.938Z,24.10
2022-11-16T22:30:29.091Z,22.37
2022-11-16T22:35:46.889Z,27.40
2022-11-16T22:38:13.438Z,29.23
2022-11-16T22:40:39.977Z,29.87
2022-11-16T22:43:06.746Z,25.23
2022-11-16T22:49:20.720Z,29.42
2022-11-16T22:51:47.255Z,29.87
2022-11-16T22:54:15.610Z,30.60
2022-11-16T22:56:43.127Z,31.95
2022-11-16T22:59:10.035Z,30.90
2022-11-16T23:01:37.479Z,30.83
2022-11-16T23:04:04.630Z,27.55
2022-11-16T23:06:31.403Z,29.63
2022-11-16T23:08:58.070Z,31.00
2022-11-16T23:11:55.443Z,29.05
2022-11-16T23:14:40.468Z,27.60
2022-11-16T23:17:07.020Z,29.08
2022-11-16T23:19:53.014Z,32.00
2022-11-16T23:22:40.272Z,30.58
2022-11-16T23:25:29.177Z,28.17
2022-11-16T23:28:01.052Z,29.30
2022-11-16T23:30:27.617Z,29.00
